createdAt,value
2023-01-22T00:01:26.603Z,101491.00
2023-01-22T00:03:55.060Z,101484.16
2023-01-22T00:06:23.668Z,101489.22
2023-01-22T00:08:52.096Z,101481.47
2023-01-22T00:11:20.975Z,101483.25
2023-01-22T00:13:49.076Z,101493.66
2023-01-22T00:16:21.374Z,101497.06
2023-01-22T00:18:49.647Z,101484.78
2023-01-22T00:21:18.091Z,101491.00
2023-01-22T00:23:46.148Z,101492.75
2023-01-22T00:26:16.350Z,101484.91
2023-01-22T00:28:46.181Z,101484.41
2023-01-22T00:31:17.962Z,101488.28
2023-01-22T00:33:48.385Z,101488.31
2023-01-22T00:36:19.949Z,101483.75
2023-01-22T00:38:49.456Z,101490.38
2023-01-22T00:41:23.777Z,101484.78
2023-01-22T00:43:52.958Z,101497.25
2023-01-22T00:46:23.883Z,101486.12
2023-01-22T00:48:53.523Z,101495.22
2023-01-22T00:51:24.769Z,101487.37
2023-01-22T00:53:52.914Z,101493.09
2023-01-22T00:56:23.180Z,101490.25
2023-01-22T00:58:51.214Z,101496.47
2023-01-22T01:01:20.260Z,101499.94
2023-01-22T01:03:48.431Z,101499.84
2023-01-22T01:06:22.461Z,101510.47
2023-01-22T01:08:51.332Z,101512.91
2023-01-22T01:11:22.147Z,101505.84
2023-01-22T01:13:51.821Z,101511.28
2023-01-22T01:16:23.737Z,101504.50
2023-01-22T01:18:54.009Z,101507.63
2023-01-22T01:21:23.372Z,101500.84
2023-01-22T01:23:51.708Z,101499.91
2023-01-22T01:26:19.780Z,101498.19
2023-01-22T01:28:48.012Z,101507.63
2023-01-22T01:31:18.155Z,101501.69
2023-01-22T01:33:46.905Z,101504.94
2023-01-22T01:36:18.253Z,101502.22
2023-01-22T01:38:48.034Z,101495.81
2023-01-22T01:41:19.450Z,101505.56
2023-01-22T01:43:48.558Z,101506.50
2023-01-22T01:46:21.389Z,101496.75
2023-01-22T01:48:52.849Z,101501.06
2023-01-22T01:51:28.874Z,101502.75
2023-01-22T01:53:59.936Z,101507.16
2023-01-22T01:56:31.112Z,101507.97
2023-01-22T01:59:03.555Z,101513.38
2023-01-22T02:01:32.617Z,101502.81
2023-01-22T02:04:01.706Z,101512.41
2023-01-22T02:06:30.103Z,101512.34
2023-01-22T02:09:00.491Z,101508.72
2023-01-22T02:11:29.840Z,101508.59
2023-01-22T02:14:02.039Z,101512.53
2023-01-22T02:16:31.033Z,101521.19
2023-01-22T02:18:59.404Z,101528.94
2023-01-22T02:21:46.921Z,101531.47
2023-01-22T02:24:17.269Z,101522.66
2023-01-22T02:26:46.469Z,101522.72
2023-01-22T02:29:16.510Z,101519.50
2023-01-22T02:31:44.921Z,101521.87
2023-01-22T02:34:13.993Z,101523.84
2023-01-22T02:36:42.124Z,101517.19
2023-01-22T02:39:11.735Z,101515.19
2023-01-22T02:41:39.777Z,101518.59
2023-01-22T02:44:10.119Z,101515.28
2023-01-22T02:46:39.444Z,101515.97
2023-01-22T02:49:10.596Z,101514.97
2023-01-22T02:51:38.897Z,101513.28
2023-01-22T02:54:07.295Z,101511.44
2023-01-22T02:56:36.887Z,101514.06
2023-01-22T02:59:05.805Z,101515.00
2023-01-22T03:01:34.069Z,101511.44
2023-01-22T03:04:11.388Z,101513.06
2023-01-22T03:06:41.271Z,101514.97
2023-01-22T03:09:11.223Z,101507.19
2023-01-22T03:11:42.567Z,101522.56
2023-01-22T03:14:28.914Z,101507.00
2023-01-22T03:17:15.271Z,101508.69
2023-01-22T03:20:01.007Z,101510.47
2023-01-22T03:22:29.714Z,101506.91
2023-01-22T03:25:00.437Z,101510.81
2023-01-22T03:27:32.315Z,101508.69
2023-01-22T03:30:00.786Z,101514.06
2023-01-22T03:32:29.912Z,101508.03
2023-01-22T03:34:57.968Z,101520.16
2023-01-22T03:37:26.872Z,101517.69
2023-01-22T03:39:57.335Z,101524.09
2023-01-22T03:42:26.487Z,101525.88
2023-01-22T03:44:56.108Z,101526.56
2023-01-22T03:47:25.335Z,101525.63
2023-01-22T03:49:53.371Z,101528.78
2023-01-22T03:52:21.753Z,101521.00
2023-01-22T03:54:49.732Z,101525.37
2023-01-22T03:57:18.318Z,101521.78
2023-01-22T03:59:46.596Z,101529.66
2023-01-22T04:02:16.080Z,101537.34
2023-01-22T04:04:44.924Z,101538.16
2023-01-22T04:07:13.510Z,101533.97
2023-01-22T04:09:41.494Z,101531.38
2023-01-22T04:12:09.976Z,101538.37
2023-01-22T04:14:38.230Z,101534.81
2023-01-22T04:17:06.347Z,101541.81
2023-01-22T04:19:38.308Z,101538.19
2023-01-22T04:22:07.030Z,101532.19
2023-01-22T04:24:36.471Z,101540.91
2023-01-22T04:27:05.294Z,101547.16
2023-01-22T04:29:33.343Z,101544.41
2023-01-22T04:32:01.415Z,101550.50
2023-01-22T04:34:30.136Z,101559.37
2023-01-22T04:37:00.558Z,101561.09
2023-01-22T04:39:31.436Z,101550.47
2023-01-22T04:41:59.470Z,101555.84
2023-01-22T04:44:27.655Z,101554.12
2023-01-22T04:46:56.142Z,101561.16
2023-01-22T04:49:24.238Z,101562.84
2023-01-22T04:51:54.063Z,101560.16
2023-01-22T04:54:23.772Z,101565.31
2023-01-22T04:56:52.747Z,101569.03
2023-01-22T04:59:21.374Z,101572.50
2023-01-22T05:01:50.931Z,101568.84
2023-01-22T05:04:21.752Z,101573.50
2023-01-22T05:06:50.045Z,101571.69
2023-01-22T05:09:18.148Z,101574.22
2023-01-22T05:11:48.571Z,101575.09
2023-01-22T05:14:17.363Z,101578.69
2023-01-22T05:16:46.979Z,101589.13
2023-01-22T05:19:14.948Z,101586.53
2023-01-22T05:21:43.547Z,101588.22
2023-01-22T05:24:13.836Z,101597.91
2023-01-22T05:26:42.041Z,101595.41
2023-01-22T05:29:11.792Z,101595.44
2023-01-22T05:31:40.843Z,101597.34
2023-01-22T05:34:10.695Z,101590.28
2023-01-22T05:36:38.904Z,101595.53
2023-01-22T05:39:07.205Z,101603.53
2023-01-22T05:41:36.229Z,101607.16
2023-01-22T05:44:04.916Z,101597.34
2023-01-22T05:46:34.410Z,101597.22
2023-01-22T05:49:04.580Z,101596.28
2023-01-22T05:51:33.053Z,101598.88
2023-01-22T05:54:01.751Z,101606.78
2023-01-22T05:56:30.885Z,101609.34
2023-01-22T05:58:59.344Z,101613.75
2023-01-22T06:01:27.628Z,101606.06
2023-01-22T06:03:57.403Z,101615.81
2023-01-22T06:06:25.845Z,101618.19
2023-01-22T06:08:53.976Z,101619.94
2023-01-22T06:11:22.424Z,101617.41
2023-01-22T06:13:50.359Z,101619.06
2023-01-22T06:16:18.665Z,101619.94
2023-01-22T06:18:47.125Z,101619.19
2023-01-22T06:21:17.038Z,101625.38
2023-01-22T06:23:45.364Z,101626.28
2023-01-22T06:26:14.326Z,101627.19
2023-01-22T06:28:42.689Z,101630.81
2023-01-22T06:31:10.773Z,101630.13
2023-01-22T06:33:41.224Z,101628.12
2023-01-22T06:36:09.887Z,101633.59
2023-01-22T06:38:39.751Z,101632.59
2023-01-22T06:41:08.742Z,101636.97
2023-01-22T06:43:38.177Z,101639.44
2023-01-22T06:46:06.753Z,101634.00
2023-01-22T06:48:36.155Z,101640.16
2023-01-22T06:51:04.321Z,101647.13
2023-01-22T06:53:32.694Z,101640.94
2023-01-22T06:56:02.358Z,101654.16
2023-01-22T06:58:31.729Z,101655.06
2023-01-22T07:01:01.407Z,101661.19
2023-01-22T07:03:29.671Z,101665.44
2023-01-22T07:05:58.845Z,101666.28
2023-01-22T07:08:27.490Z,101669.03
2023-01-22T07:10:55.780Z,101676.81
2023-01-22T07:13:25.092Z,101676.91
2023-01-22T07:15:53.491Z,101677.81
2023-01-22T07:18:23.913Z,101686.41
2023-01-22T07:20:52.309Z,101687.44
2023-01-22T07:23:20.639Z,101692.06
2023-01-22T07:25:48.652Z,101692.81
2023-01-22T07:28:16.602Z,101697.13
2023-01-22T07:30:47.152Z,101700.59
2023-01-22T07:33:15.614Z,101694.78
2023-01-22T07:35:44.103Z,101700.97
2023-01-22T07:38:12.508Z,101707.16
2023-01-22T07:40:40.456Z,101703.72
2023-01-22T07:43:08.686Z,101709.88
2023-01-22T07:45:37.873Z,101711.41
2023-01-22T07:48:07.894Z,101716.34
2023-01-22T07:50:36.931Z,101713.62
2023-01-22T07:53:05.194Z,101720.47
2023-01-22T07:55:33.130Z,101723.22
2023-01-22T07:58:03.602Z,101728.25
2023-01-22T08:00:32.466Z,101723.19
2023-01-22T08:03:00.741Z,101725.50
2023-01-22T08:05:30.045Z,101726.34
2023-01-22T08:07:57.999Z,101722.94
2023-01-22T08:10:26.910Z,101724.84
2023-01-22T08:12:55.106Z,101724.66
2023-01-22T08:15:23.174Z,101735.47
2023-01-22T08:17:52.086Z,101730.91
2023-01-22T08:20:21.328Z,101727.28
2023-01-22T08:22:50.891Z,101735.06
2023-01-22T08:25:19.216Z,101731.44
2023-01-22T08:27:47.145Z,101733.44
2023-01-22T08:30:15.903Z,101736.84
2023-01-22T08:32:45.494Z,101737.59
2023-01-22T08:35:14.171Z,101747.91
2023-01-22T08:37:43.899Z,101746.13
2023-01-22T08:40:14.871Z,101747.22
2023-01-22T08:42:42.919Z,101749.69
2023-01-22T08:45:11.926Z,101754.12
2023-01-22T08:47:40.040Z,101747.78
2023-01-22T08:50:13.236Z,101756.94
2023-01-22T08:52:45.081Z,101758.16
2023-01-22T08:55:15.024Z,101756.31
2023-01-22T08:57:43.517Z,101760.47
2023-01-22T09:00:12.737Z,101762.25
2023-01-22T09:02:40.799Z,101773.75
2023-01-22T09:05:10.896Z,101770.25
2023-01-22T09:07:39.106Z,101773.75
2023-01-22T09:10:10.792Z,101778.19
2023-01-22T09:12:40.809Z,101778.47
2023-01-22T09:15:15.889Z,101777.22
2023-01-22T09:17:44.783Z,101783.09
2023-01-22T09:20:13.259Z,101793.47
2023-01-22T09:22:42.269Z,101798.78
2023-01-22T09:25:11.377Z,101804.34
2023-01-22T09:27:40.889Z,101801.25
2023-01-22T09:30:10.202Z,101800.13
2023-01-22T09:32:38.569Z,101803.81
2023-01-22T09:35:08.301Z,101804.69
2023-01-22T09:37:36.394Z,101807.25
2023-01-22T09:40:05.171Z,101811.78
2023-01-22T09:42:36.205Z,101817.88
2023-01-22T09:45:12.025Z,101818.94
2023-01-22T09:47:44.310Z,101816.16
2023-01-22T09:50:19.042Z,101816.94
2023-01-22T09:52:48.105Z,101814.13
2023-01-22T09:57:47.985Z,101826.63
2023-01-22T10:00:21.792Z,101820.31
2023-01-22T10:02:55.191Z,101823.25
2023-01-22T10:05:28.921Z,101826.78
2023-01-22T10:08:01.735Z,101815.91
2023-01-22T10:10:30.103Z,101816.59
2023-01-22T10:13:03.473Z,101815.53
2023-01-22T10:15:34.025Z,101811.88
2023-01-22T10:18:06.512Z,101810.69
2023-01-22T10:20:34.711Z,101811.34
2023-01-22T10:23:15.143Z,101810.41
2023-01-22T10:25:44.059Z,101807.94
2023-01-22T10:28:13.564Z,101810.72
2023-01-22T10:30:48.787Z,101813.97
2023-01-22T10:33:20.228Z,101814.13
2023-01-22T10:35:49.799Z,101820.41
2023-01-22T10:38:26.858Z,101823.47
2023-01-22T10:40:59.903Z,101825.16
2023-01-22T10:43:34.021Z,101825.53
2023-01-22T10:46:07.949Z,101828.88
2023-01-22T10:48:36.321Z,101829.91
2023-01-22T10:51:14.985Z,101825.31
2023-01-22T10:53:49.169Z,101822.69
2023-01-22T10:56:28.191Z,101810.00
2023-01-22T10:58:57.981Z,101815.44
2023-01-22T11:01:33.191Z,101812.97
2023-01-22T11:04:13.379Z,101818.34
2023-01-22T11:06:45.183Z,101815.47
2023-01-22T11:09:21.805Z,101825.16
2023-01-22T11:11:54.907Z,101821.88
2023-01-22T11:14:28.813Z,101826.59
2023-01-22T11:17:02.510Z,101820.94
2023-01-22T11:19:39.290Z,101824.53
2023-01-22T11:22:16.479Z,101826.34
2023-01-22T11:24:47.374Z,101823.06
2023-01-22T11:27:54.001Z,101820.03
2023-01-22T11:30:54.255Z,101817.53
2023-01-22T11:33:48.453Z,101818.06
2023-01-22T11:36:23.183Z,101822.47
2023-01-22T11:38:56.224Z,101811.69
2023-01-22T11:41:38.164Z,101815.91
2023-01-22T11:44:20.459Z,101816.78
2023-01-22T11:47:01.821Z,101810.66
2023-01-22T11:49:41.461Z,101818.59
2023-01-22T11:52:22.978Z,101821.28
2023-01-22T11:55:05.398Z,101820.88
2023-01-22T11:57:37.970Z,101814.13
2023-01-22T12:00:27.323Z,101814.38
2023-01-22T12:03:15.709Z,101812.22
2023-01-22T12:05:53.146Z,101812.31
2023-01-22T12:08:51.854Z,101819.09
2023-01-22T12:11:34.389Z,101818.78
2023-01-22T12:14:25.629Z,101819.59
2023-01-22T12:17:01.671Z,101828.16
2023-01-22T12:19:46.107Z,101830.06
2023-01-22T12:22:28.170Z,101834.28
2023-01-22T12:25:02.864Z,101831.78
2023-01-22T12:27:35.828Z,101824.06
2023-01-22T12:30:15.486Z,101834.47
2023-01-22T12:32:46.604Z,101823.72
2023-01-22T12:35:18.625Z,101832.47
2023-01-22T12:37:51.428Z,101827.28
2023-01-22T12:40:38.023Z,101825.56
2023-01-22T12:43:07.781Z,101831.56
2023-01-22T12:45:45.621Z,101834.69
2023-01-22T12:48:25.143Z,101828.50
2023-01-22T12:50:55.278Z,101830.19
2023-01-22T12:53:27.734Z,101834.81
2023-01-22T12:56:05.959Z,101834.03
2023-01-22T12:58:36.198Z,101839.59
2023-01-22T13:01:21.084Z,101832.38
2023-01-22T13:03:58.656Z,101836.03
2023-01-22T13:06:33.824Z,101838.78
2023-01-22T13:09:04.732Z,101830.75
2023-01-22T13:11:35.682Z,101832.44
2023-01-22T13:14:17.653Z,101835.97
2023-01-22T13:16:54.021Z,101825.38
2023-01-22T13:19:25.316Z,101835.94
2023-01-22T13:21:54.464Z,101834.63
2023-01-22T13:24:24.046Z,101841.62
2023-01-22T13:26:54.916Z,101844.28
2023-01-22T13:29:27.258Z,101834.47
2023-01-22T13:31:57.466Z,101837.03
2023-01-22T13:34:29.288Z,101839.81
2023-01-22T13:36:58.298Z,101843.97
2023-01-22T13:39:30.076Z,101842.91
2023-01-22T13:42:00.951Z,101842.09
2023-01-22T13:44:38.931Z,101839.31
2023-01-22T13:47:07.219Z,101846.22
2023-01-22T13:49:42.514Z,101844.34
2023-01-22T13:52:19.936Z,101846.06
2023-01-22T13:54:58.801Z,101848.72
2023-01-22T13:57:27.198Z,101854.19
2023-01-22T13:59:56.617Z,101849.22
2023-01-22T14:02:29.390Z,101848.44
2023-01-22T14:04:58.266Z,101848.69
2023-01-22T14:07:29.010Z,101848.97
2023-01-22T14:09:59.903Z,101862.53
2023-01-22T14:12:30.286Z,101850.75
2023-01-22T14:14:58.904Z,101855.25
2023-01-22T14:17:29.436Z,101865.78
2023-01-22T14:19:58.434Z,101863.25
2023-01-22T14:22:27.348Z,101866.66
2023-01-22T14:24:55.634Z,101864.88
2023-01-22T14:27:28.635Z,101866.81
2023-01-22T14:29:56.833Z,101869.41
2023-01-22T14:32:26.763Z,101873.94
2023-01-22T14:34:55.490Z,101877.50
2023-01-22T14:37:25.554Z,101880.94
2023-01-22T14:40:02.125Z,101874.78
2023-01-22T14:42:34.880Z,101878.13
2023-01-22T14:45:09.057Z,101878.88
2023-01-22T14:47:40.374Z,101873.56
2023-01-22T14:50:10.557Z,101880.53
2023-01-22T14:52:39.667Z,101873.50
2023-01-22T14:55:11.456Z,101877.31
2023-01-22T14:57:41.881Z,101877.41
2023-01-22T15:00:13.654Z,101885.25
2023-01-22T15:02:42.390Z,101890.53
2023-01-22T15:05:11.834Z,101898.50
2023-01-22T15:07:39.948Z,101893.06
2023-01-22T15:10:09.951Z,101898.41
2023-01-22T15:12:38.081Z,101909.03
2023-01-22T15:15:09.819Z,101905.56
2023-01-22T15:17:38.069Z,101912.59
2023-01-22T15:20:07.233Z,101912.66
2023-01-22T15:22:35.277Z,101916.09
2023-01-22T15:25:03.725Z,101913.44
2023-01-22T15:27:31.912Z,101914.41
2023-01-22T15:29:59.874Z,101920.75
2023-01-22T15:32:29.694Z,101922.56
2023-01-22T15:34:57.907Z,101928.97
2023-01-22T15:37:26.264Z,101923.84
2023-01-22T15:39:54.746Z,101933.59
2023-01-22T15:42:22.943Z,101934.50
2023-01-22T15:44:50.929Z,101932.75
2023-01-22T15:47:19.134Z,101940.62
2023-01-22T15:49:48.666Z,101939.72
2023-01-22T15:52:16.583Z,101938.81
2023-01-22T15:54:46.254Z,101935.22
2023-01-22T15:57:14.608Z,101939.56
2023-01-22T15:59:43.348Z,101942.91
2023-01-22T16:02:12.100Z,101935.88
2023-01-22T16:04:41.018Z,101940.19
2023-01-22T16:07:10.722Z,101935.75
2023-01-22T16:09:39.013Z,101949.81
2023-01-22T16:12:09.130Z,101946.19
2023-01-22T16:14:37.540Z,101949.66
2023-01-22T16:17:05.521Z,101949.69
2023-01-22T16:19:34.401Z,101955.94
2023-01-22T16:22:02.930Z,101951.72
2023-01-22T16:24:32.543Z,101955.00
2023-01-22T16:27:00.774Z,101956.78
2023-01-22T16:29:28.799Z,101962.88
2023-01-22T16:31:57.344Z,101961.25
2023-01-22T16:34:25.597Z,101957.72
2023-01-22T16:36:55.429Z,101950.75
2023-01-22T16:39:25.963Z,101961.22
2023-01-22T16:41:56.822Z,101952.50
2023-01-22T16:44:27.196Z,101962.06
2023-01-22T16:46:59.815Z,101963.88
2023-01-22T16:49:30.577Z,101965.78
2023-01-22T16:52:12.978Z,101959.53
2023-01-22T16:54:49.382Z,101957.94
2023-01-22T16:57:20.191Z,101969.22
2023-01-22T16:59:48.323Z,101963.94
2023-01-22T17:02:19.071Z,101971.03
2023-01-22T17:04:47.415Z,101960.41
2023-01-22T17:07:31.583Z,101964.09
2023-01-22T17:10:01.207Z,101965.72
2023-01-22T17:12:30.713Z,101970.94
2023-01-22T17:15:00.010Z,101974.53
2023-01-22T17:17:28.516Z,101973.75
2023-01-22T17:19:56.515Z,101973.75
2023-01-22T17:22:25.116Z,101974.75
2023-01-22T17:24:53.583Z,101978.22
2023-01-22T17:27:21.569Z,101979.94
2023-01-22T17:29:51.246Z,101987.97
2023-01-22T17:32:20.583Z,101983.59
2023-01-22T17:34:48.511Z,101989.81
2023-01-22T17:37:16.696Z,101988.75
2023-01-22T17:39:50.499Z,101994.16
2023-01-22T17:42:18.988Z,101995.72
2023-01-22T17:44:47.451Z,101997.50
2023-01-22T17:47:17.310Z,102002.84
2023-01-22T17:49:47.394Z,102008.03
2023-01-22T17:52:17.827Z,102003.78
2023-01-22T17:54:45.737Z,102000.91
2023-01-22T17:57:14.138Z,102002.06
2023-01-22T17:59:42.408Z,102008.94
2023-01-22T18:02:11.205Z,102006.28
2023-01-22T18:04:41.027Z,102008.00
2023-01-22T18:07:09.290Z,102012.41
2023-01-22T18:09:37.349Z,102016.06
2023-01-22T18:12:05.836Z,102031.06
2023-01-22T18:14:34.723Z,102029.34
2023-01-22T18:17:03.291Z,102016.09
2023-01-22T18:19:31.813Z,102027.41
2023-01-22T18:22:01.678Z,102031.97
2023-01-22T18:24:34.213Z,102032.97
2023-01-22T18:27:03.028Z,102032.91
2023-01-22T18:29:31.189Z,102035.44
2023-01-22T18:31:59.666Z,102041.56
2023-01-22T18:34:27.984Z,102033.66
2023-01-22T18:36:56.216Z,102036.47
2023-01-22T18:39:25.968Z,102042.72
2023-01-22T18:41:54.346Z,102044.31
2023-01-22T18:44:27.489Z,102048.88
2023-01-22T18:46:59.210Z,102052.25
2023-01-22T18:49:28.133Z,102050.47
2023-01-22T18:51:59.275Z,102055.09
2023-01-22T18:54:29.165Z,102051.44
2023-01-22T18:56:58.967Z,102050.63
2023-01-22T18:59:27.033Z,102060.25
2023-01-22T19:01:55.468Z,102054.88
2023-01-22T19:04:25.304Z,102054.00
2023-01-22T19:06:56.896Z,102059.25
2023-01-22T19:09:27.065Z,102053.09
2023-01-22T19:11:56.763Z,102057.53
2023-01-22T19:14:24.807Z,102059.25
2023-01-22T19:16:54.240Z,102062.00
2023-01-22T19:19:22.766Z,102060.91
2023-01-22T19:21:53.753Z,102067.91
2023-01-22T19:24:25.069Z,102070.53
2023-01-22T19:26:54.762Z,102065.16
2023-01-22T19:29:25.647Z,102061.56
2023-01-22T19:31:57.000Z,102074.84
2023-01-22T19:34:26.009Z,102062.50
2023-01-22T19:36:56.141Z,102065.97
2023-01-22T19:39:26.276Z,102064.44
2023-01-22T19:41:55.368Z,102074.91
2023-01-22T19:44:25.091Z,102074.72
2023-01-22T19:46:53.605Z,102076.44
2023-01-22T19:49:22.069Z,102087.06
2023-01-22T19:51:51.467Z,102082.66
2023-01-22T19:54:19.569Z,102086.12
2023-01-22T19:56:48.173Z,102093.38
2023-01-22T19:59:18.395Z,102094.25
2023-01-22T20:01:50.029Z,102091.53
2023-01-22T20:04:21.540Z,102087.13
2023-01-22T20:06:51.842Z,102091.41
2023-01-22T20:09:21.829Z,102092.38
2023-01-22T20:11:53.554Z,102101.03
2023-01-22T20:14:22.571Z,102104.47
2023-01-22T20:16:52.497Z,102104.37
2023-01-22T20:19:20.765Z,102106.31
2023-01-22T20:21:49.696Z,102114.91
2023-01-22T20:24:17.767Z,102110.50
2023-01-22T20:26:45.836Z,102114.81
2023-01-22T20:29:14.029Z,102118.28
2023-01-22T20:31:42.598Z,102120.03
2023-01-22T20:34:12.217Z,102117.50
2023-01-22T20:36:40.745Z,102123.72
2023-01-22T20:39:08.718Z,102122.03
2023-01-22T20:41:36.713Z,102121.19
2023-01-22T20:44:05.334Z,102131.00
2023-01-22T20:46:34.049Z,102129.47
2023-01-22T20:49:02.699Z,102134.59
2023-01-22T20:51:32.607Z,102132.75
2023-01-22T20:54:01.443Z,102133.69
2023-01-22T20:56:32.600Z,102125.84
2023-01-22T20:59:03.229Z,102131.81
2023-01-22T21:01:31.674Z,102133.66
2023-01-22T21:04:00.613Z,102137.22
2023-01-22T21:06:32.174Z,102135.34
2023-01-22T21:09:02.039Z,102132.72
2023-01-22T21:11:32.050Z,102139.78
2023-01-22T21:14:01.897Z,102150.34
2023-01-22T21:16:32.093Z,102145.91
2023-01-22T21:19:02.322Z,102155.69
2023-01-22T21:21:32.077Z,102157.41
2023-01-22T21:24:02.197Z,102157.69
2023-01-22T21:26:31.998Z,102161.00
2023-01-22T21:29:02.945Z,102149.53
2023-01-22T21:31:32.213Z,102155.69
2023-01-22T21:34:05.265Z,102162.78
2023-01-22T21:36:36.697Z,102162.84
2023-01-22T21:39:07.152Z,102163.84
2023-01-22T21:41:36.148Z,102168.09
2023-01-22T21:44:22.367Z,102165.63
2023-01-22T21:46:51.506Z,102165.63
2023-01-22T21:49:24.383Z,102166.78
2023-01-22T21:51:54.633Z,102172.00
2023-01-22T21:54:27.736Z,102180.03
2023-01-22T21:56:57.624Z,102177.41
2023-01-22T21:59:25.810Z,102167.62
2023-01-22T22:01:54.580Z,102170.38
2023-01-22T22:04:24.360Z,102170.38
2023-01-22T22:06:53.543Z,102174.78
2023-01-22T22:09:26.952Z,102172.09
2023-01-22T22:11:56.658Z,102175.59
2023-01-22T22:14:25.473Z,102191.53
2023-01-22T22:16:55.043Z,102183.59
2023-01-22T22:19:24.665Z,102182.72
2023-01-22T22:21:52.827Z,102184.53
2023-01-22T22:24:21.720Z,102184.53
2023-01-22T22:26:51.414Z,102191.56
2023-01-22T22:29:19.422Z,102180.13
2023-01-22T22:31:47.529Z,102187.09
2023-01-22T22:34:15.899Z,102196.78
2023-01-22T22:36:43.890Z,102190.66
2023-01-22T22:39:11.923Z,102199.47
2023-01-22T22:41:40.334Z,102201.97
2023-01-22T22:44:10.362Z,102201.03
2023-01-22T22:46:40.088Z,102203.63
2023-01-22T22:49:11.794Z,102199.22
2023-01-22T22:51:42.063Z,102201.78
2023-01-22T22:54:14.806Z,102208.69
2023-01-22T22:56:44.551Z,102202.56
2023-01-22T22:59:15.455Z,102205.12
2023-01-22T23:01:43.661Z,102201.56
2023-01-22T23:04:12.712Z,102208.47
2023-01-22T23:06:43.912Z,102212.00
2023-01-22T23:09:13.748Z,102223.31
2023-01-22T23:11:42.438Z,102216.28
2023-01-22T23:14:11.111Z,102218.91
2023-01-22T23:16:42.858Z,102216.31
2023-01-22T23:19:14.667Z,102215.56
2023-01-22T23:21:43.148Z,102217.31
2023-01-22T23:24:13.434Z,102215.50
2023-01-22T23:26:42.763Z,102226.03
2023-01-22T23:29:13.484Z,102219.87
2023-01-22T23:31:43.573Z,102227.78
2023-01-22T23:34:14.175Z,102222.53
2023-01-22T23:36:45.133Z,102221.62
2023-01-22T23:39:14.480Z,102227.75
2023-01-22T23:41:42.928Z,102224.16
2023-01-22T23:44:11.765Z,102234.63
2023-01-22T23:46:39.837Z,102238.94
2023-01-22T23:49:10.933Z,102228.41
2023-01-22T23:51:41.217Z,102226.66
2023-01-22T23:54:09.922Z,102230.16
2023-01-22T23:56:38.187Z,102231.91
2023-01-22T23:59:06.712Z,102227.50
